sensor_id;sensor_type;location;lat;lon;timestamp;pressure;altitude;pressure_sealevel;temperature;humidity
70217;BME280;65567;55.684;37.570;2023-02-22T00:01:13;97871.13;;;-8.92;50.37
70217;BME280;65567;55.684;37.570;2023-02-22T00:03:58;97865.09;;;-9.09;50.65
70217;BME280;65567;55.684;37.570;2023-02-22T00:06:24;97879.47;;;-9.07;50.61
70217;BME280;65567;55.684;37.570;2023-02-22T00:08:50;97876.06;;;-9.14;50.67
70217;BME280;65567;55.684;37.570;2023-02-22T00:11:20;97880.25;;;-9.20;50.64
70217;BME280;65567;55.684;37.570;2023-02-22T00:13:46;97896.38;;;-9.10;50.92
70217;BME280;65567;55.684;37.570;2023-02-22T00:16:21;97892.03;;;-9.28;51.70
70217;BME280;65567;55.684;37.570;2023-02-22T00:18:48;97900.59;;;-9.13;51.61
70217;BME280;65567;55.684;37.570;2023-02-22T00:21:15;97896.38;;;-9.09;51.41
70217;BME280;65567;55.684;37.570;2023-02-22T00:23:45;97890.41;;;-9.22;52.03
70217;BME280;65567;55.684;37.570;2023-02-22T00:26:12;97908.22;;;-9.13;52.33
70217;BME280;65567;55.684;37.570;2023-02-22T00:28:46;97912.41;;;-9.15;52.48
70217;BME280;65567;55.684;37.570;2023-02-22T00:31:13;97908.09;;;-9.25;52.37
70217;BME280;65567;55.684;37.570;2023-02-22T00:33:39;97913.22;;;-9.20;52.84
70217;BME280;65567;55.684;37.570;2023-02-22T00:36:05;97926.84;;;-9.07;52.70
70217;BME280;65567;55.684;37.570;2023-02-22T00:38:31;97919.13;;;-9.18;52.41
70217;BME280;65567;55.684;37.570;2023-02-22T00:40:57;97923.38;;;-9.17;52.46
70217;BME280;65567;55.684;37.570;2023-02-22T00:43:24;97930.22;;;-9.08;51.90
70217;BME280;65567;55.684;37.570;2023-02-22T00:45:51;97925.91;;;-9.16;51.87
70217;BME280;65567;55.684;37.570;2023-02-22T00:48:18;97929.31;;;-9.14;51.72
70217;BME280;65567;55.684;37.570;2023-02-22T00:50:44;97924.25;;;-9.15;51.98
70217;BME280;65567;55.684;37.570;2023-02-22T00:53:14;97928.53;;;-9.05;52.22
70217;BME280;65567;55.684;37.570;2023-02-22T00:55:40;97933.63;;;-9.05;51.96
70217;BME280;65567;55.684;37.570;2023-02-22T00:58:06;97924.25;;;-9.14;52.71
70217;BME280;65567;55.684;37.570;2023-02-22T01:00:37;97932.84;;;-8.93;52.31
70217;BME280;65567;55.684;37.570;2023-02-22T01:03:05;97933.72;;;-8.86;52.56
70217;BME280;65567;55.684;37.570;2023-02-22T01:05:32;97945.63;;;-8.77;52.32
70217;BME280;65567;55.684;37.570;2023-02-22T01:07:59;97941.38;;;-8.77;51.92
70217;BME280;65567;55.684;37.570;2023-02-22T01:10:29;97939.69;;;-8.76;51.53
70217;BME280;65567;55.684;37.570;2023-02-22T01:12:55;97937.19;;;-8.72;51.58
70217;BME280;65567;55.684;37.570;2023-02-22T01:15:24;97938.78;;;-8.86;51.93
70217;BME280;65567;55.684;37.570;2023-02-22T01:17:52;97954.03;;;-8.83;51.60
70217;BME280;65567;55.684;37.570;2023-02-22T01:20:20;97958.25;;;-8.85;52.46
70217;BME280;65567;55.684;37.570;2023-02-22T01:22:52;97950.66;;;-8.82;51.82
70217;BME280;65567;55.684;37.570;2023-02-22T01:25:26;97956.50;;;-8.92;52.38
70217;BME280;65567;55.684;37.570;2023-02-22T01:27:53;97961.63;;;-8.86;52.00
70217;BME280;65567;55.684;37.570;2023-02-22T01:30:22;97962.41;;;-8.95;52.00
70217;BME280;65567;55.684;37.570;2023-02-22T01:32:48;97972.66;;;-8.81;51.74
70217;BME280;65567;55.684;37.570;2023-02-22T01:35:17;97968.41;;;-8.82;51.86
70217;BME280;65567;55.684;37.570;2023-02-22T01:37:44;97968.41;;;-8.85;52.29
70217;BME280;65567;55.684;37.570;2023-02-22T01:40:16;97983.66;;;-8.79;51.99
70217;BME280;65567;55.684;37.570;2023-02-22T01:42:43;97971.78;;;-8.86;52.40
70217;BME280;65567;55.684;37.570;2023-02-22T01:48:11;97987.09;;;-8.71;51.85
70217;BME280;65567;55.684;37.570;2023-02-22T01:50:49;97998.97;;;-8.70;51.58
70217;BME280;65567;55.684;37.570;2023-02-22T01:53:20;97987.94;;;-8.72;52.20
70217;BME280;65567;55.684;37.570;2023-02-22T01:55:48;97987.88;;;-8.80;52.10
70217;BME280;65567;55.684;37.570;2023-02-22T01:58:16;97995.56;;;-8.73;51.98
70217;BME280;65567;55.684;37.570;2023-02-22T02:00:43;98001.41;;;-8.87;51.55
70217;BME280;65567;55.684;37.570;2023-02-22T02:03:21;98011.50;;;-8.91;51.84
70217;BME280;65567;55.684;37.570;2023-02-22T02:05:53;98002.13;;;-8.99;51.82
70217;BME280;65567;55.684;37.570;2023-02-22T02:08:44;98003.81;;;-9.01;51.90
70217;BME280;65567;55.684;37.570;2023-02-22T02:11:18;98010.56;;;-9.06;52.10
70217;BME280;65567;55.684;37.570;2023-02-22T02:13:45;98019.88;;;-9.02;51.91
70217;BME280;65567;55.684;37.570;2023-02-22T02:16:11;98013.91;;;-9.11;52.11
70217;BME280;65567;55.684;37.570;2023-02-22T02:18:37;98016.34;;;-9.21;52.50
70217;BME280;65567;55.684;37.570;2023-02-22T02:35:27;98047.78;;;-9.03;52.56
70217;BME280;65567;55.684;37.570;2023-02-22T02:46:45;98059.56;;;-9.07;53.15
70217;BME280;65567;55.684;37.570;2023-02-22T02:48:52;98068.06;;;-9.05;52.46
70217;BME280;65567;55.684;37.570;2023-02-22T02:51:24;98068.81;;;-9.15;52.00
70217;BME280;65567;55.684;37.570;2023-02-22T02:53:52;98072.84;;;-9.37;53.61
70217;BME280;65567;55.684;37.570;2023-02-22T02:56:19;98068.75;;;-9.24;52.75
70217;BME280;65567;55.684;37.570;2023-02-22T02:58:52;98079.63;;;-9.33;52.42
70217;BME280;65567;55.684;37.570;2023-02-22T03:10:29;98076.59;;;-9.78;52.82
70217;BME280;65567;55.684;37.570;2023-02-22T03:18:55;98080.09;;;-9.71;53.43
70217;BME280;65567;55.684;37.570;2023-02-22T03:21:28;98090.19;;;-9.73;53.32
70217;BME280;65567;55.684;37.570;2023-02-22T03:24:09;98095.41;;;-9.60;52.60
70217;BME280;65567;55.684;37.570;2023-02-22T03:26:48;98098.75;;;-9.65;52.52
70217;BME280;65567;55.684;37.570;2023-02-22T03:29:17;98104.66;;;-9.63;52.74
70217;BME280;65567;55.684;37.570;2023-02-22T03:31:49;98107.25;;;-9.59;53.24
70217;BME280;65567;55.684;37.570;2023-02-22T03:34:21;98103.97;;;-9.49;52.14
70217;BME280;65567;55.684;37.570;2023-02-22T03:36:56;98114.81;;;-9.63;52.45
70217;BME280;65567;55.684;37.570;2023-02-22T03:39:24;98112.31;;;-9.59;51.91
70217;BME280;65567;55.684;37.570;2023-02-22T03:42:05;98122.38;;;-9.66;51.86
70217;BME280;65567;55.684;37.570;2023-02-22T03:44:35;98125.75;;;-9.67;51.81
70217;BME280;65567;55.684;37.570;2023-02-22T03:47:06;98123.13;;;-9.73;52.02
70217;BME280;65567;55.684;37.570;2023-02-22T03:49:43;98130.72;;;-9.73;52.08
70217;BME280;65567;55.684;37.570;2023-02-22T03:52:09;98136.69;;;-9.71;52.18
70217;BME280;65567;55.684;37.570;2023-02-22T03:54:38;98143.34;;;-9.77;53.12
70217;BME280;65567;55.684;37.570;2023-02-22T03:57:11;98143.59;;;-9.57;52.43
70217;BME280;65567;55.684;37.570;2023-02-22T03:59:39;98146.03;;;-9.64;52.19
70217;BME280;65567;55.684;37.570;2023-02-22T04:02:06;98149.53;;;-9.55;52.02
70217;BME280;65567;55.684;37.570;2023-02-22T04:04:32;98156.22;;;-9.60;51.68
70217;BME280;65567;55.684;37.570;2023-02-22T04:06:58;98159.28;;;-9.86;52.62
70217;BME280;65567;55.684;37.570;2023-02-22T04:09:24;98159.41;;;-9.75;52.39
70217;BME280;65567;55.684;37.570;2023-02-22T04:11:50;98148.25;;;-9.90;51.89
70217;BME280;65567;55.684;37.570;2023-02-22T04:14:16;98165.22;;;-9.84;52.03
70217;BME280;65567;55.684;37.570;2023-02-22T04:16:42;98170.34;;;-9.78;52.87
70217;BME280;65567;55.684;37.570;2023-02-22T04:19:08;98165.47;;;-9.64;51.94
70217;BME280;65567;55.684;37.570;2023-02-22T04:21:35;98167.91;;;-9.72;52.43
70217;BME280;65567;55.684;37.570;2023-02-22T04:24:00;98171.25;;;-9.74;52.68
70217;BME280;65567;55.684;37.570;2023-02-22T04:26:26;98168.06;;;-9.59;52.25
70217;BME280;65567;55.684;37.570;2023-02-22T04:28:52;98169.72;;;-9.61;52.04
70217;BME280;65567;55.684;37.570;2023-02-22T04:31:18;98178.09;;;-9.69;52.48
70217;BME280;65567;55.684;37.570;2023-02-22T04:33:44;98183.16;;;-9.69;52.11
70217;BME280;65567;55.684;37.570;2023-02-22T04:36:11;98189.78;;;-9.78;52.71
70217;BME280;65567;55.684;37.570;2023-02-22T04:38:41;98186.31;;;-9.85;53.03
70217;BME280;65567;55.684;37.570;2023-02-22T04:41:07;98188.03;;;-9.83;52.13
70217;BME280;65567;55.684;37.570;2023-02-22T04:43:33;98199.81;;;-9.86;51.82
70217;BME280;65567;55.684;37.570;2023-02-22T04:45:59;98202.91;;;-10.06;52.55
70217;BME280;65567;55.684;37.570;2023-02-22T04:48:25;98211.44;;;-9.99;52.17
70217;BME280;65567;55.684;37.570;2023-02-22T04:50:50;98205.53;;;-10.01;52.31
70217;BME280;65567;55.684;37.570;2023-02-22T04:53:17;98203.69;;;-10.10;52.61
70217;BME280;65567;55.684;37.570;2023-02-22T04:55:42;98212.84;;;-10.18;52.66
70217;BME280;65567;55.684;37.570;2023-02-22T04:58:09;98215.38;;;-10.18;52.47
70217;BME280;65567;55.684;37.570;2023-02-22T05:00:34;98207.59;;;-10.31;52.47
70217;BME280;65567;55.684;37.570;2023-02-22T05:03:00;98207.59;;;-10.31;52.13
70217;BME280;65567;55.684;37.570;2023-02-22T05:05:26;98214.38;;;-10.30;52.20
70217;BME280;65567;55.684;37.570;2023-02-22T05:07:52;98219.47;;;-10.26;51.93
70217;BME280;65567;55.684;37.570;2023-02-22T05:10:19;98210.97;;;-10.30;53.52
70217;BME280;65567;55.684;37.570;2023-02-22T05:12:45;98208.75;;;-10.11;53.52
70217;BME280;65567;55.684;37.570;2023-02-22T05:15:15;98213.19;;;-9.95;52.46
70217;BME280;65567;55.684;37.570;2023-02-22T05:17:41;98213.19;;;-9.97;52.46
70217;BME280;65567;55.684;37.570;2023-02-22T05:20:10;98220.19;;;-9.78;51.83
70217;BME280;65567;55.684;37.570;2023-02-22T05:22:41;98236.22;;;-9.80;51.70
70217;BME280;65567;55.684;37.570;2023-02-22T05:25:07;98227.06;;;-9.70;52.16
70217;BME280;65567;55.684;37.570;2023-02-22T05:27:35;98231.59;;;-9.46;51.55
70217;BME280;65567;55.684;37.570;2023-02-22T05:30:02;98223.16;;;-9.46;50.87
70217;BME280;65567;55.684;37.570;2023-02-22T05:32:28;98245.06;;;-9.50;51.07
70217;BME280;65567;55.684;37.570;2023-02-22T05:34:54;98248.63;;;-9.35;50.85
70217;BME280;65567;55.684;37.570;2023-02-22T05:37:20;98246.97;;;-9.35;50.88
70217;BME280;65567;55.684;37.570;2023-02-22T05:39:46;98247.91;;;-9.26;50.39
70217;BME280;65567;55.684;37.570;2023-02-22T05:42:35;98242.28;;;-9.01;50.08
70217;BME280;65567;55.684;37.570;2023-02-22T05:45:01;98250.72;;;-9.03;50.06
70217;BME280;65567;55.684;37.570;2023-02-22T05:47:28;98264.31;;;-8.98;49.98
70217;BME280;65567;55.684;37.570;2023-02-22T05:49:54;98258.31;;;-9.05;49.92
70217;BME280;65567;55.684;37.570;2023-02-22T05:52:20;98262.59;;;-8.99;50.05
70217;BME280;65567;55.684;37.570;2023-02-22T05:54:46;98262.69;;;-8.93;49.89
70217;BME280;65567;55.684;37.570;2023-02-22T05:57:12;98258.41;;;-8.95;49.40
70217;BME280;65567;55.684;37.570;2023-02-22T05:59:38;98269.50;;;-8.89;49.50
70217;BME280;65567;55.684;37.570;2023-02-22T06:02:04;98270.16;;;-9.04;49.22
70217;BME280;65567;55.684;37.570;2023-02-22T06:04:29;98273.53;;;-9.05;49.92
70217;BME280;65567;55.684;37.570;2023-02-22T06:06:55;98268.75;;;-8.80;49.64
70217;BME280;65567;55.684;37.570;2023-02-22T06:09:21;98272.19;;;-8.75;49.91
70217;BME280;65567;55.684;37.570;2023-02-22T06:11:47;98288.34;;;-8.65;49.97
70217;BME280;65567;55.684;37.570;2023-02-22T06:14:13;98283.44;;;-8.50;49.31
70217;BME280;65567;55.684;37.570;2023-02-22T06:16:39;98286.72;;;-8.60;49.34
70217;BME280;65567;55.684;37.570;2023-02-22T06:19:05;98282.63;;;-8.47;49.57
70217;BME280;65567;55.684;37.570;2023-02-22T06:21:31;98282.75;;;-8.28;49.37
70217;BME280;65567;55.684;37.570;2023-02-22T06:23:57;98293.94;;;-8.09;49.14
70217;BME280;65567;55.684;37.570;2023-02-22T06:26:23;98285.41;;;-8.15;48.58
70217;BME280;65567;55.684;37.570;2023-02-22T06:28:52;98286.25;;;-8.14;48.64
70217;BME280;65567;55.684;37.570;2023-02-22T06:31:20;98292.28;;;-8.06;48.85
70217;BME280;65567;55.684;37.570;2023-02-22T06:33:46;98291.38;;;-8.11;48.67
70217;BME280;65567;55.684;37.570;2023-02-22T06:36:12;98291.53;;;-7.92;48.69
70217;BME280;65567;55.684;37.570;2023-02-22T06:38:38;98299.28;;;-7.78;48.06
70217;BME280;65567;55.684;37.570;2023-02-22T06:41:04;98292.53;;;-7.75;47.79
70217;BME280;65567;55.684;37.570;2023-02-22T06:43:30;98303.69;;;-7.51;47.45
70217;BME280;65567;55.684;37.570;2023-02-22T06:45:56;98299.44;;;-7.55;47.42
70217;BME280;65567;55.684;37.570;2023-02-22T06:48:22;98296.84;;;-7.65;47.93
70217;BME280;65567;55.684;37.570;2023-02-22T06:50:48;98305.41;;;-7.44;47.77
70217;BME280;65567;55.684;37.570;2023-02-22T06:53:14;98309.81;;;-7.23;47.24
70217;BME280;65567;55.684;37.570;2023-02-22T06:55:39;98305.59;;;-7.13;46.91
70217;BME280;65567;55.684;37.570;2023-02-22T06:58:05;98300.50;;;-7.13;47.25
70217;BME280;65567;55.684;37.570;2023-02-22T07:00:31;98319.34;;;-6.74;46.42
70217;BME280;65567;55.684;37.570;2023-02-22T07:02:58;98321.13;;;-6.51;46.53
70217;BME280;65567;55.684;37.570;2023-02-22T07:05:25;98313.53;;;-6.22;47.14
70217;BME280;65567;55.684;37.570;2023-02-22T07:07:53;98317.84;;;-6.01;45.98
70217;BME280;65567;55.684;37.570;2023-02-22T07:10:26;98313.53;;;-5.82;45.40
70217;BME280;65567;55.684;37.570;2023-02-22T07:12:52;98318.63;;;-5.80;45.50
70217;BME280;65567;55.684;37.570;2023-02-22T07:15:20;98327.13;;;-5.52;45.31
70217;BME280;65567;55.684;37.570;2023-02-22T07:17:47;98326.28;;;-5.43;44.69
70217;BME280;65567;55.684;37.570;2023-02-22T07:20:13;98325.44;;;-5.45;44.82
70217;BME280;65567;55.684;37.570;2023-02-22T07:22:38;98324.56;;;-5.32;44.62
70217;BME280;65567;55.684;37.570;2023-02-22T07:25:06;98327.97;;;-5.19;44.54
70217;BME280;65567;55.684;37.570;2023-02-22T07:27:44;98327.09;;;-5.13;43.89
70217;BME280;65567;55.684;37.570;2023-02-22T07:30:22;98331.34;;;-5.15;43.51
70217;BME280;65567;55.684;37.570;2023-02-22T07:32:53;98329.63;;;-5.07;43.47
70217;BME280;65567;55.684;37.570;2023-02-22T07:37:50;98336.38;;;-4.81;43.33
70217;BME280;65567;55.684;37.570;2023-02-22T07:40:18;98345.59;;;-4.55;42.97
70217;BME280;65567;55.684;37.570;2023-02-22T07:42:58;98345.47;;;-4.26;42.60
70217;BME280;65567;55.684;37.570;2023-02-22T07:45:25;98354.72;;;-4.02;42.09
70217;BME280;65567;55.684;37.570;2023-02-22T07:47:51;98353.91;;;-4.07;42.08
70217;BME280;65567;55.684;37.570;2023-02-22T07:50:22;98356.44;;;-4.04;41.95
70217;BME280;65567;55.684;37.570;2023-02-22T07:52:53;98369.03;;;-3.74;42.27
70217;BME280;65567;55.684;37.570;2023-02-22T07:55:23;98360.38;;;-3.56;41.11
70217;BME280;65567;55.684;37.570;2023-02-22T07:57:50;98363.78;;;-3.56;41.36
70217;BME280;65567;55.684;37.570;2023-02-22T08:00:26;98369.56;;;-3.34;41.20
70217;BME280;65567;55.684;37.570;2023-02-22T08:02:53;98363.31;;;-3.02;40.87
70217;BME280;65567;55.684;37.570;2023-02-22T08:05:21;98368.09;;;-2.72;41.49
70217;BME280;65567;55.684;37.570;2023-02-22T08:07:48;98367.56;;;-2.27;40.65
70217;BME280;65567;55.684;37.570;2023-02-22T08:10:18;98360.03;;;-1.77;40.49
70217;BME280;65567;55.684;37.570;2023-02-22T08:12:44;98352.53;;;-1.35;39.71
70217;BME280;65567;55.684;37.570;2023-02-22T08:15:25;98349.44;;;-1.06;38.56
70217;BME280;65567;55.684;37.570;2023-02-22T08:17:53;98358.97;;;-0.65;38.60
70217;BME280;65567;55.684;37.570;2023-02-22T08:20:21;98370.53;;;-0.43;37.60
70217;BME280;65567;55.684;37.570;2023-02-22T08:22:49;98354.94;;;-0.37;37.39
70217;BME280;65567;55.684;37.570;2023-02-22T08:25:16;98365.34;;;-0.01;37.76
70217;BME280;65567;55.684;37.570;2023-02-22T08:27:43;98364.22;;;0.49;36.69
70217;BME280;65567;55.684;37.570;2023-02-22T08:30:15;98371.41;;;0.72;35.42
70217;BME280;65567;55.684;37.570;2023-02-22T08:32:45;98371.25;;;1.11;34.85
70217;BME280;65567;55.684;37.570;2023-02-22T08:35:12;98370.19;;;1.20;34.40
70217;BME280;65567;55.684;37.570;2023-02-22T08:37:44;98382.88;;;1.59;34.21
70217;BME280;65567;55.684;37.570;2023-02-22T08:40:12;98388.59;;;2.01;34.29
70217;BME280;65567;55.684;37.570;2023-02-22T08:42:38;98381.41;;;2.39;33.48
70217;BME280;65567;55.684;37.570;2023-02-22T08:45:04;98380.25;;;2.74;33.66
70217;BME280;65567;55.684;37.570;2023-02-22T08:47:31;98383.47;;;3.33;33.47
70217;BME280;65567;55.684;37.570;2023-02-22T08:49:57;98372.41;;;3.77;32.80
70217;BME280;65567;55.684;37.570;2023-02-22T08:52:23;98376.66;;;4.02;31.39
70217;BME280;65567;55.684;37.570;2023-02-22T08:54:49;98387.19;;;4.43;32.56
70217;BME280;65567;55.684;37.570;2023-02-22T08:57:16;98380.94;;;4.69;30.45
70217;BME280;65567;55.684;37.570;2023-02-22T08:59:43;98388.97;;;4.85;30.17
70217;BME280;65567;55.684;37.570;2023-02-22T09:02:14;98384.97;;;4.99;29.66
70217;BME280;65567;55.684;37.570;2023-02-22T09:04:41;98387.81;;;5.13;29.33
70217;BME280;65567;55.684;37.570;2023-02-22T09:07:07;98392.88;;;4.95;28.63
70217;BME280;65567;55.684;37.570;2023-02-22T09:09:33;98390.59;;;5.08;28.89
70217;BME280;65567;55.684;37.570;2023-02-22T09:12:01;98386.13;;;5.12;29.42
70217;BME280;65567;55.684;37.570;2023-02-22T09:14:27;98394.69;;;5.55;28.49
70217;BME280;65567;55.684;37.570;2023-02-22T09:16:53;98397.25;;;5.95;27.72
70217;BME280;65567;55.684;37.570;2023-02-22T09:19:19;98407.38;;;6.20;27.33
70217;BME280;65567;55.684;37.570;2023-02-22T09:21:54;98414.38;;;6.56;26.79
70217;BME280;65567;55.684;37.570;2023-02-22T09:24:20;98398.56;;;6.78;27.00
70217;BME280;65567;55.684;37.570;2023-02-22T09:26:46;98394.47;;;7.09;26.43
70217;BME280;65567;55.684;37.570;2023-02-22T09:29:16;98401.66;;;7.04;26.74
70217;BME280;65567;55.684;37.570;2023-02-22T09:31:42;98395.59;;;6.69;25.87
70217;BME280;65567;55.684;37.570;2023-02-22T09:34:08;98406.00;;;6.86;26.78
70217;BME280;65567;55.684;37.570;2023-02-22T09:36:48;98407.63;;;6.89;26.21
70217;BME280;65567;55.684;37.570;2023-02-22T09:39:16;98406.25;;;6.82;26.00
70217;BME280;65567;55.684;37.570;2023-02-22T09:41:57;98402.03;;;6.97;26.63
70217;BME280;65567;55.684;37.570;2023-02-22T09:47:02;98415.72;;;7.53;25.11
70217;BME280;65567;55.684;37.570;2023-02-22T09:49:37;98408.38;;;7.61;24.89
70217;BME280;65567;55.684;37.570;2023-02-22T09:52:15;98416.72;;;7.50;25.27
70217;BME280;65567;55.684;37.570;2023-02-22T09:54:47;98419.19;;;7.36;24.80
70217;BME280;65567;55.684;37.570;2023-02-22T09:57:24;98421.44;;;7.26;24.78
70217;BME280;65567;55.684;37.570;2023-02-22T10:00:19;98415.69;;;7.02;24.14
70217;BME280;65567;55.684;37.570;2023-02-22T10:03:16;98417.81;;;6.93;25.10
70217;BME280;65567;55.684;37.570;2023-02-22T10:05:50;98421.34;;;6.92;24.92
70217;BME280;65567;55.684;37.570;2023-02-22T10:08:21;98426.56;;;7.27;24.58
70217;BME280;65567;55.684;37.570;2023-02-22T10:11:00;98423.88;;;7.80;24.65
70217;BME280;65567;55.684;37.570;2023-02-22T10:13:43;98412.81;;;7.92;24.58
70217;BME280;65567;55.684;37.570;2023-02-22T10:16:24;98427.69;;;7.90;23.63
70217;BME280;65567;55.684;37.570;2023-02-22T10:22:09;98427.34;;;7.97;23.77
70217;BME280;65567;55.684;37.570;2023-02-22T10:24:53;98424.94;;;7.93;23.34
70217;BME280;65567;55.684;37.570;2023-02-22T10:32:30;98430.84;;;8.13;25.32
70217;BME280;65567;55.684;37.570;2023-02-22T10:35:00;98429.16;;;8.12;23.19
70217;BME280;65567;55.684;37.570;2023-02-22T10:37:33;98428.22;;;8.13;23.63
70217;BME280;65567;55.684;37.570;2023-02-22T10:42:38;98427.06;;;7.85;22.66
70217;BME280;65567;55.684;37.570;2023-02-22T10:45:05;98424.66;;;7.65;22.19
70217;BME280;65567;55.684;37.570;2023-02-22T10:47:41;98433.03;;;7.71;22.41
70217;BME280;65567;55.684;37.570;2023-02-22T10:50:12;98434.25;;;7.64;22.63
70217;BME280;65567;55.684;37.570;2023-02-22T10:52:39;98430.53;;;7.52;23.29
70217;BME280;65567;55.684;37.570;2023-02-22T10:55:11;98443.53;;;7.35;23.66
70217;BME280;65567;55.684;37.570;2023-02-22T10:57:39;98450.06;;;7.43;23.03
70217;BME280;65567;55.684;37.570;2023-02-22T11:00:15;98450.59;;;7.15;23.33
70217;BME280;65567;55.684;37.570;2023-02-22T11:02:56;98449.53;;;7.02;23.13
70217;BME280;65567;55.684;37.570;2023-02-22T11:05:34;98450.94;;;6.72;22.69
70217;BME280;65567;55.684;37.570;2023-02-22T11:10:44;98452.31;;;5.84;23.71
70217;BME280;65567;55.684;37.570;2023-02-22T11:13:36;98448.63;;;5.69;24.40
70217;BME280;65567;55.684;37.570;2023-02-22T11:16:27;98454.28;;;5.38;24.09
70217;BME280;65567;55.684;37.570;2023-02-22T11:19:11;98460.25;;;5.19;24.35
70217;BME280;65567;55.684;37.570;2023-02-22T11:21:42;98461.00;;;5.01;23.96
70217;BME280;65567;55.684;37.570;2023-02-22T11:24:12;98461.66;;;4.84;24.29
70217;BME280;65567;55.684;37.570;2023-02-22T11:26:52;98471.88;;;4.66;24.55
70217;BME280;65567;55.684;37.570;2023-02-22T11:29:40;98469.00;;;4.28;24.95
70217;BME280;65567;55.684;37.570;2023-02-22T11:32:17;98473.56;;;3.97;25.43
70217;BME280;65567;55.684;37.570;2023-02-22T11:34:48;98464.75;;;3.78;25.80
70217;BME280;65567;55.684;37.570;2023-02-22T11:37:35;98479.94;;;3.63;26.02
70217;BME280;65567;55.684;37.570;2023-02-22T11:42:36;98488.75;;;2.79;26.27
70217;BME280;65567;55.684;37.570;2023-02-22T11:48:00;98501.28;;;2.35;26.78
70217;BME280;65567;55.684;37.570;2023-02-22T11:50:29;98492.16;;;1.91;26.94
70217;BME280;65567;55.684;37.570;2023-02-22T11:56:12;98502.09;;;1.41;27.91
70217;BME280;65567;55.684;37.570;2023-02-22T12:15:43;98520.69;;;-0.98;30.74
70217;BME280;65567;55.684;37.570;2023-02-22T12:18:35;98539.63;;;-1.06;30.93
70217;BME280;65567;55.684;37.570;2023-02-22T12:21:15;98534.81;;;-1.27;31.21
70217;BME280;65567;55.684;37.570;2023-02-22T12:23:53;98545.50;;;-1.61;31.45
70217;BME280;65567;55.684;37.570;2023-02-22T12:26:27;98553.22;;;-1.60;31.58
70217;BME280;65567;55.684;37.570;2023-02-22T12:31:46;98550.09;;;-1.85;31.90
70217;BME280;65567;55.684;37.570;2023-02-22T12:37:17;98561.31;;;-1.95;32.89
70217;BME280;65567;55.684;37.570;2023-02-22T12:45:04;98567.56;;;-2.18;32.63
70217;BME280;65567;55.684;37.570;2023-02-22T12:47:41;98573.56;;;-2.21;32.41
70217;BME280;65567;55.684;37.570;2023-02-22T12:50:21;98576.22;;;-2.30;32.62
70217;BME280;65567;55.684;37.570;2023-02-22T12:55:51;98586.66;;;-2.50;33.02
70217;BME280;65567;55.684;37.570;2023-02-22T12:58:26;98592.84;;;-2.77;33.62
70217;BME280;65567;55.684;37.570;2023-02-22T13:01:17;98591.19;;;-2.83;33.93
70217;BME280;65567;55.684;37.570;2023-02-22T13:03:45;98594.75;;;-3.03;34.26
70217;BME280;65567;55.684;37.570;2023-02-22T13:06:33;98598.13;;;-3.01;34.75
70217;BME280;65567;55.684;37.570;2023-02-22T13:17:48;98599.06;;;-3.14;35.14
70217;BME280;65567;55.684;37.570;2023-02-22T13:20:47;98606.75;;;-3.14;35.61
70217;BME280;65567;55.684;37.570;2023-02-22T13:26:04;98605.09;;;-3.20;34.52
70217;BME280;65567;55.684;37.570;2023-02-22T13:51:12;98637.78;;;-3.91;37.46
70217;BME280;65567;55.684;37.570;2023-02-22T13:54:00;98643.75;;;-4.03;38.09
70217;BME280;65567;55.684;37.570;2023-02-22T13:56:28;98643.75;;;-4.14;37.68
70217;BME280;65567;55.684;37.570;2023-02-22T13:59:02;98651.47;;;-4.26;38.67
70217;BME280;65567;55.684;37.570;2023-02-22T14:01:45;98654.00;;;-4.22;37.91
70217;BME280;65567;55.684;37.570;2023-02-22T14:09:42;98647.19;;;-4.69;38.70
70217;BME280;65567;55.684;37.570;2023-02-22T14:17:47;98651.41;;;-4.88;38.06
70217;BME280;65567;55.684;37.570;2023-02-22T14:22:49;98659.06;;;-4.98;38.56
70217;BME280;65567;55.684;37.570;2023-02-22T14:28:04;98657.25;;;-5.25;39.17
70217;BME280;65567;55.684;37.570;2023-02-22T14:30:32;98664.03;;;-5.38;39.52
70217;BME280;65567;55.684;37.570;2023-02-22T14:33:00;98658.88;;;-5.42;39.34
70217;BME280;65567;55.684;37.570;2023-02-22T14:35:37;98662.28;;;-5.47;39.98
70217;BME280;65567;55.684;37.570;2023-02-22T14:38:05;98661.47;;;-5.38;39.41
70217;BME280;65567;55.684;37.570;2023-02-22T14:40:41;98664.03;;;-5.36;39.25
70217;BME280;65567;55.684;37.570;2023-02-22T14:43:17;98677.63;;;-5.43;39.29
70217;BME280;65567;55.684;37.570;2023-02-22T14:46:03;98676.72;;;-5.55;40.04
70217;BME280;65567;55.684;37.570;2023-02-22T14:48:34;98683.53;;;-5.49;39.40
70217;BME280;65567;55.684;37.570;2023-02-22T14:51:25;98686.09;;;-5.51;39.54
70217;BME280;65567;55.684;37.570;2023-02-22T15:02:23;98696.09;;;-5.86;40.25
70217;BME280;65567;55.684;37.570;2023-02-22T15:04:54;98690.94;;;-5.91;40.78
70217;BME280;65567;55.684;37.570;2023-02-22T15:07:25;98698.59;;;-5.94;40.74
70217;BME280;65567;55.684;37.570;2023-02-22T15:10:05;98696.03;;;-5.92;40.60
70217;BME280;65567;55.684;37.570;2023-02-22T15:12:32;98703.66;;;-6.02;40.52
70217;BME280;65567;55.684;37.570;2023-02-22T15:15:15;98702.72;;;-6.10;41.51
70217;BME280;65567;55.684;37.570;2023-02-22T15:17:43;98710.31;;;-6.19;41.45
70217;BME280;65567;55.684;37.570;2023-02-22T15:20:14;98712.88;;;-6.19;41.45
70217;BME280;65567;55.684;37.570;2023-02-22T15:22:42;98717.97;;;-6.21;41.96
70217;BME280;65567;55.684;37.570;2023-02-22T15:25:09;98710.28;;;-6.25;42.03
70217;BME280;65567;55.684;37.570;2023-02-22T15:27:37;98717.13;;;-6.18;41.73
70217;BME280;65567;55.684;37.570;2023-02-22T15:30:07;98720.50;;;-6.19;41.48
70217;BME280;65567;55.684;37.570;2023-02-22T15:32:40;98723.94;;;-6.19;41.49
70217;BME280;65567;55.684;37.570;2023-02-22T15:40:24;98736.41;;;-6.48;42.03
70217;BME280;65567;55.684;37.570;2023-02-22T15:42:59;98734.72;;;-6.48;42.05
70217;BME280;65567;55.684;37.570;2023-02-22T15:45:27;98732.94;;;-6.56;42.64
70217;BME280;65567;55.684;37.570;2023-02-22T15:47:54;98741.56;;;-6.43;42.13
70217;BME280;65567;55.684;37.570;2023-02-22T15:53:21;98728.84;;;-6.39;42.63
70217;BME280;65567;55.684;37.570;2023-02-22T15:55:55;98743.22;;;-6.45;42.90